Aeroporto :
LOGIN :

Iscrizione | Disclaimer

   EN    FR    IT 

 










Sommario :    VFR   VFR Marginale   IFR   IFR Intensivo   IFR Molto Intensivo
Visibilità : 
Base nubi : 
>= 8 km
>= 3000ft
5 / 8 km
1000 / 3000 ft
1500m / 5 km
500 / 1000 ft
800 / 1500m
200 / 500 ft
< 800m
< 200 ft
Simboli :   Temporali  Nebbia  Neve Forte  Precipitazioni Forti  Vento > 20 kt
SIGMETs :   Varie  Temporali  Ghiacco  Turbolenza  Onda orograficha  Ceneri Vulcaniche







- Altitudine del aeroporto : 779 ft
- Codice IATA : CMF
- Carte del aeroporto


LFLB - Chambery / Aix-Les-Bains

ULTIMO METAR :
  • 172130Z AUTO 36012KT CAVOK 06/03 Q1021 NOSIG

METARs OBSOLETI :
  • 172100Z AUTO 02014KT CAVOK 06/03 Q1021 NOSIG
  • 172030Z AUTO 02012KT CAVOK 06/03 Q1021 NOSIG
  • 172000Z AUTO 01011KT CAVOK 07/03 Q1021 NOSIG
  • 171930Z AUTO 36012KT 9999 FEW025 07/03 Q1021 NOSIG
  • 171900Z AUTO 35012KT 9999 FEW028 07/03 Q1021 NOSIG

TAF TAF LFLB
Valido dal 17 a 18 ore il 18 a 18 ore UTC


171700Z 1718/1818 36009KT 9999 SCT025
PROB40 1718/1810 BKN023
Nessun NOTAM noto per questo aeroporto.
4 SIGMETs conosciuti per la FIR Marseille (LFMM) :
 
Temporali affogati
LFMM SIGMET 7 VALID 172300/180300 LFPW
LFMM MARSEILLE FIR/UIR EMBD TS FCST WI N4200 E00345 - N4215 E00230 - N4345 E00245 - N4330 E00345 - N4200 E00345 TOP FL250 STNR NC=
Temporali affogati
LFMM SIGMET 6 VALID 172200/180200 LFPW
LFMM MARSEILLE FIR/UIR EMBD TS OBS WI N4215 E00945 - N4115 E00945 - N4115 E00800 - N3900 E00800 - N3900 E00600 - N4215 E00530 - N4215 E00945 TOP FL260 MOV WNW 10KT NC=
Turbolenza severa
LFMM SIGMET 5 VALID 172100/180100 LFPW
LFMM MARSEILLE FIR/UIR SEV TURB FCST WI N4500 E00700 - N4400 E00700 - N4315 E00945 - N4215 E00815 - N4300 E00530 - N4500 E00615 - N4500 E00700 SFC/FL070 STNR NC=
Temporali affogati
LFMM SIGMET 4 VALID 171800/172200 LFPW
LFMM MARSEILLE FIR/UIR EMBD TS FCST WI N4145 E00945 - N4115 E00945 - N4115 E00800 - N3900 E00800 - N3900 E00615 - N4215 E00730 - N4145 E00945 TOP FL260 STNR NC=



MetMap, La meteo Aeronautica in un colpo d'occhio ! - Copyright ORBIFLY Dicembre 2007 - Disclaimer

ORBIFLY MET'MAP TEAM :

Programmazione e sviluppo : Alexandra Zaïnal
Concezione e sviluppo : Baudouin d'Aumeries
Co-Programmazione e sviluppo : Marc-Olivier Méhu
Supporto tecnico e logistico : Manuel Goepfert
Aiuto per la traduzione : Arnaldo La Scala

Contatto : metmap@orbifly.com




FONTI E CREDITI :

   NOAA